Time;durP1;ratioP1;P1;durP2;ratioP2;P2;SDS_P1;SDS_P2;PMS_P1;PMS_P2;Temp;Humidity;BMP_temperature;BMP_pressure;BME280_temperature;BME280_humidity;BME280_pressure;Samples;Min_cycle;Max_cycle;Signal;HPM_P1;HPM_P2
2024/03/14 00:00:05;;;;;;;14.00;6.60;;;;;;;;;;4955815;28;20474;-82
2024/03/14 00:02:37;;;;;;;16.25;7.07;;;;;;;;;;4951480;28;20383;-81
2024/03/14 00:05:03;;;;;;;11.57;6.93;;;;;;;;;;4949852;28;20038;-82
2024/03/14 00:07:29;;;;;;;16.65;7.65;;;;;;;;;;4935804;28;20030;-82
2024/03/14 00:09:56;;;;;;;14.05;7.32;;;;;;;;;;4952438;28;20462;-82
2024/03/14 00:12:22;;;;;;;16.20;7.00;;;;;;;;;;4936227;28;20035;-82
2024/03/14 00:14:51;;;;;;;14.35;7.45;;;;;;;;;;4942833;29;20039;-81
2024/03/14 00:17:19;;;;;;;14.07;6.95;;;;;;;;;;4951179;28;20030;-80
2024/03/14 00:19:49;;;;;;;17.85;6.90;;;;;;;;;;4941949;28;20045;-81
2024/03/14 00:22:15;;;;;;;17.08;7.20;;;;;;;;;;4978941;28;20048;-79
2024/03/14 00:24:45;;;;;;;14.65;6.35;;;;;;;;;;4990713;28;20094;-81
2024/03/14 00:27:12;;;;;;;13.25;7.00;;;;;;;;;;4986532;28;20035;-80
2024/03/14 00:29:37;;;;;;;14.50;6.85;;;;;;;;;;4938554;29;20035;-80
2024/03/14 00:32:03;;;;;;;11.32;7.30;;;;;;;;;;4949957;28;20412;-80
2024/03/14 00:34:29;;;;;;;15.20;7.20;;;;;;;;;;4944689;28;20038;-80
2024/03/14 00:36:56;;;;;;;14.00;7.07;;;;;;;;;;4936055;28;20049;-82
2024/03/14 00:39:23;;;;;;;13.70;7.28;;;;;;;;;;4970267;28;20406;-80
2024/03/14 00:41:53;;;;;;;17.75;8.30;;;;;;;;;;4955856;28;20040;-80
2024/03/14 00:44:21;;;;;;;13.55;7.93;;;;;;;;;;4963985;28;20439;-81
2024/03/14 00:46:50;;;;;;;12.45;8.10;;;;;;;;;;4956191;28;20028;-81
2024/03/14 00:49:18;;;;;;;15.05;8.35;;;;;;;;;;4979967;28;20034;-82
2024/03/14 00:51:44;;;;;;;21.77;8.20;;;;;;;;;;4991073;28;20027;-80
2024/03/14 00:54:10;;;;;;;13.38;8.35;;;;;;;;;;4950660;28;20165;-81
2024/03/14 00:56:36;;;;;;;19.90;8.43;;;;;;;;;;4940167;29;20050;-83
2024/03/14 00:59:01;;;;;;;15.15;8.10;;;;;;;;;;4943280;28;20047;-82
2024/03/14 01:01:27;;;;;;;13.50;7.68;;;;;;;;;;4977676;28;20039;-81
2024/03/14 01:03:53;;;;;;;15.38;8.70;;;;;;;;;;4950538;29;20038;-81
2024/03/14 01:06:19;;;;;;;18.52;8.20;;;;;;;;;;4941155;28;20027;-81
2024/03/14 01:08:45;;;;;;;19.20;9.25;;;;;;;;;;4945062;28;20177;-81
2024/03/14 01:11:11;;;;;;;19.15;8.43;;;;;;;;;;4963299;28;20398;-81
2024/03/14 01:13:38;;;;;;;11.93;7.53;;;;;;;;;;4939794;28;20506;-81
2024/03/14 01:16:04;;;;;;;14.68;7.65;;;;;;;;;;4964851;28;20095;-81
2024/03/14 01:18:30;;;;;;;14.80;8.55;;;;;;;;;;4953510;28;20057;-81
2024/03/14 01:20:56;;;;;;;14.18;7.82;;;;;;;;;;4990841;28;20038;-81
2024/03/14 01:23:22;;;;;;;18.77;7.57;;;;;;;;;;4959632;28;20034;-81
2024/03/14 01:25:48;;;;;;;17.48;8.35;;;;;;;;;;4964944;29;20081;-82
2024/03/14 01:28:14;;;;;;;17.63;8.48;;;;;;;;;;4951723;29;20035;-81
2024/03/14 01:30:42;;;;;;;17.73;8.25;;;;;;;;;;4985039;28;20022;-81
2024/03/14 01:33:09;;;;;;;16.10;9.05;;;;;;;;;;4952363;28;20517;-80
2024/03/14 01:35:58;;;;;;;17.00;8.60;;;;;;;;;;4979081;23;20066;-80
2024/03/14 01:38:30;;;;;;;20.52;9.20;;;;;;;;;;4964362;28;20532;-81
2024/03/14 01:41:29;;;;;;;14.23;8.40;;;;;;;;;;4955000;28;20031;-80
2024/03/14 01:44:00;;;;;;;18.77;9.15;;;;;;;;;;4946478;28;20041;-81
2024/03/14 01:46:30;;;;;;;14.40;9.10;;;;;;;;;;4948476;29;20048;-80
2024/03/14 01:48:57;;;;;;;16.77;9.43;;;;;;;;;;4905872;29;20070;-82
2024/03/14 01:51:26;;;;;;;15.20;9.23;;;;;;;;;;4940764;28;20042;-81
2024/03/14 01:53:56;;;;;;;16.02;9.32;;;;;;;;;;4956586;28;20414;-80
2024/03/14 01:56:30;;;;;;;15.23;9.40;;;;;;;;;;4954322;28;20110;-81
2024/03/14 01:59:00;;;;;;;18.35;9.55;;;;;;;;;;4937219;29;20032;-80
2024/03/14 02:01:27;;;;;;;20.88;9.07;;;;;;;;;;4937845;29;20038;-81
2024/03/14 02:04:07;;;;;;;18.27;9.63;;;;;;;;;;4937339;29;20569;-79
2024/03/14 02:06:36;;;;;;;16.25;10.00;;;;;;;;;;4917600;29;20053;-80
2024/03/14 02:09:07;;;;;;;15.38;8.68;;;;;;;;;;4943278;29;20035;-81
2024/03/14 02:11:56;;;;;;;16.73;9.88;;;;;;;;;;4958688;29;20044;-80
2024/03/14 02:14:22;;;;;;;12.85;8.80;;;;;;;;;;4938847;29;20035;-81
2024/03/14 02:16:56;;;;;;;14.77;9.00;;;;;;;;;;4938376;29;20042;-80
2024/03/14 02:19:30;;;;;;;14.80;9.07;;;;;;;;;;4937158;29;20066;-81
2024/03/14 02:22:10;;;;;;;14.35;9.10;;;;;;;;;;4919072;29;20035;-81
2024/03/14 02:24:44;;;;;;;15.65;9.48;;;;;;;;;;4928961;29;20035;-82
2024/03/14 02:27:20;;;;;;;;;;;;;;;;;;4944474;29;20060;-81
2024/03/14 02:29:46;;;;;;;14.68;9.38;;;;;;;;;;4938912;29;19911;-81
2024/03/14 02:32:18;;;;;;;17.15;10.38;;;;;;;;;;4940974;29;20455;-81
2024/03/14 02:34:47;;;;;;;19.20;9.77;;;;;;;;;;4956749;28;20042;-81
2024/03/14 02:37:17;;;;;;;17.38;10.10;;;;;;;;;;4946687;28;20035;-82
2024/03/14 02:39:50;;;;;;;17.58;10.43;;;;;;;;;;4966649;28;20121;-80
2024/03/14 02:42:16;;;;;;;20.38;11.70;;;;;;;;;;4952754;28;20034;-80
2024/03/14 02:44:54;;;;;;;19.15;10.65;;;;;;;;;;4911000;29;20054;-80
2024/03/14 02:47:31;;;;;;;18.05;10.90;;;;;;;;;;4910565;29;20035;-80
2024/03/14 02:49:58;;;;;;;19.67;11.10;;;;;;;;;;4933541;29;20031;-80
2024/03/14 02:52:28;;;;;;;15.93;11.25;;;;;;;;;;4935354;29;20118;-81
2024/03/14 02:54:57;;;;;;;19.00;11.38;;;;;;;;;;4931428;29;20063;-81
2024/03/14 02:57:24;;;;;;;18.90;10.88;;;;;;;;;;4949057;28;20041;-81
2024/03/14 02:59:58;;;;;;;16.77;10.48;;;;;;;;;;4949438;28;20034;-80
2024/03/14 03:02:27;;;;;;;19.98;11.70;;;;;;;;;;4932528;28;20406;-80
2024/03/14 03:04:53;;;;;;;18.05;11.05;;;;;;;;;;4933624;28;20027;-81
2024/03/14 03:07:19;;;;;;;18.95;10.75;;;;;;;;;;4926512;29;20035;-80
2024/03/14 03:09:51;;;;;;;18.58;11.48;;;;;;;;;;4922296;29;20059;-82
2024/03/14 03:12:18;;;;;;;21.95;11.00;;;;;;;;;;4907877;29;20035;-81
2024/03/14 03:14:46;;;;;;;16.25;10.30;;;;;;;;;;4927553;29;20105;-81
2024/03/14 03:17:23;;;;;;;16.10;10.32;;;;;;;;;;4948927;28;20047;-81
2024/03/14 03:19:51;;;;;;;17.25;11.23;;;;;;;;;;4952956;29;20038;-81
2024/03/14 03:22:22;;;;;;;18.08;10.60;;;;;;;;;;4957942;29;20060;-81
2024/03/14 03:24:52;;;;;;;18.30;10.68;;;;;;;;;;4927164;29;20028;-80
2024/03/14 03:27:27;;;;;;;18.35;10.38;;;;;;;;;;4958786;28;20027;-80
2024/03/14 03:29:54;;;;;;;19.25;11.43;;;;;;;;;;4929036;29;20024;-80
2024/03/14 03:32:20;;;;;;;19.50;11.20;;;;;;;;;;4910480;28;20066;-81
2024/03/14 03:34:47;;;;;;;22.33;11.95;;;;;;;;;;4926296;29;20045;-81
2024/03/14 03:37:15;;;;;;;21.48;12.38;;;;;;;;;;4939828;28;20074;-80
2024/03/14 03:39:46;;;;;;;22.02;12.02;;;;;;;;;;4944819;28;20188;-80
2024/03/14 03:42:13;;;;;;;20.80;12.75;;;;;;;;;;4938798;29;20050;-81
2024/03/14 03:44:41;;;;;;;21.88;11.68;;;;;;;;;;4959661;29;20043;-82
2024/03/14 03:47:07;;;;;;;19.95;12.50;;;;;;;;;;4933390;28;20094;-81
2024/03/14 03:49:35;;;;;;;20.45;12.48;;;;;;;;;;4940996;29;20027;-81
2024/03/14 03:52:07;;;;;;;20.00;12.15;;;;;;;;;;4935285;28;20062;-80
2024/03/14 03:54:38;;;;;;;21.65;12.60;;;;;;;;;;4924496;29;20032;-80
2024/03/14 03:57:07;;;;;;;21.48;12.65;;;;;;;;;;4928743;29;20059;-80
2024/03/14 03:59:49;;;;;;;22.55;12.98;;;;;;;;;;4951198;29;20145;-81
2024/03/14 04:02:40;;;;;;;21.88;12.15;;;;;;;;;;4943181;28;20047;-80
2024/03/14 04:05:20;;;;;;;23.50;12.65;;;;;;;;;;4940534;29;20043;-80
2024/03/14 04:07:47;;;;;;;22.95;13.07;;;;;;;;;;4931425;29;20036;-81
2024/03/14 04:10:25;;;;;;;23.75;13.25;;;;;;;;;;4976391;28;20058;-80
2024/03/14 04:12:55;;;;;;;20.23;12.60;;;;;;;;;;4942129;29;20057;-80
2024/03/14 04:15:22;;;;;;;21.77;12.75;;;;;;;;;;4929069;29;20055;-80
2024/03/14 04:17:54;;;;;;;24.85;13.80;;;;;;;;;;4929475;29;20054;-82
2024/03/14 04:20:35;;;;;;;23.52;13.25;;;;;;;;;;4927104;28;20035;-80
2024/03/14 04:23:20;;;;;;;23.83;12.93;;;;;;;;;;4944751;28;20040;-80
2024/03/14 04:25:53;;;;;;;21.85;13.25;;;;;;;;;;4926530;29;20036;-81
2024/03/14 04:28:44;;;;;;;26.77;13.70;;;;;;;;;;4928032;29;20042;-82
2024/03/14 04:31:14;;;;;;;26.70;14.40;;;;;;;;;;4935437;29;20027;-80
2024/03/14 04:33:43;;;;;;;23.30;13.40;;;;;;;;;;4929314;29;20040;-80
2024/03/14 04:36:37;;;;;;;24.63;13.25;;;;;;;;;;4948219;29;20055;-80
2024/03/14 04:39:08;;;;;;;27.38;13.60;;;;;;;;;;4942316;29;20031;-81
2024/03/14 04:42:21;;;;;;;21.38;12.70;;;;;;;;;;4946009;28;20066;-81
2024/03/14 04:44:54;;;;;;;19.70;11.73;;;;;;;;;;4928446;29;20035;-81
2024/03/14 04:47:26;;;;;;;23.60;13.00;;;;;;;;;;4938152;29;20028;-81
2024/03/14 04:50:53;;;;;;;;;;;;;;;;;;;;;
2024/03/14 04:53:33;;;;;;;;;;;;;;;;;;4847855;29;20060;-83
2024/03/14 04:56:50;;;;;;;19.40;11.73;;;;;;;;;;4901211;29;19912;-81
2024/03/14 04:59:28;;;;;;;22.75;12.52;;;;;;;;;;4881027;29;20041;-82
2024/03/14 05:02:45;;;;;;;24.52;12.90;;;;;;;;;;4866315;29;20049;-81
2024/03/14 05:05:17;;;;;;;22.83;12.70;;;;;;;;;;4888126;29;20604;-82
2024/03/14 05:08:06;;;;;;;21.45;12.55;;;;;;;;;;4917841;29;20044;-81
2024/03/14 05:10:37;;;;;;;26.90;13.70;;;;;;;;;;4877017;29;20080;-81
2024/03/14 05:13:22;;;;;;;22.02;12.25;;;;;;;;;;4876830;29;20037;-81
2024/03/14 05:15:49;;;;;;;21.27;12.18;;;;;;;;;;4897250;29;20043;-82
2024/03/14 05:18:16;;;;;;;24.13;12.00;;;;;;;;;;4903893;29;20044;-80
2024/03/14 05:20:45;;;;;;;22.95;11.05;;;;;;;;;;4863075;29;20507;-81
2024/03/14 05:23:12;;;;;;;17.05;10.65;;;;;;;;;;4869995;29;20048;-81
2024/03/14 05:26:10;;;;;;;22.05;11.38;;;;;;;;;;4879052;29;20566;-81
2024/03/14 05:28:37;;;;;;;19.92;11.63;;;;;;;;;;4940373;29;20031;-80
2024/03/14 05:31:06;;;;;;;22.90;12.10;;;;;;;;;;4921616;29;20103;-80
2024/03/14 05:33:35;;;;;;;19.00;11.77;;;;;;;;;;4914131;29;20036;-82
2024/03/14 05:36:04;;;;;;;22.23;11.50;;;;;;;;;;4902406;29;20032;-81
2024/03/14 05:38:33;;;;;;;19.50;11.25;;;;;;;;;;4931278;28;20030;-81
2024/03/14 05:41:12;;;;;;;18.80;11.27;;;;;;;;;;4955587;28;20035;-80
2024/03/14 05:43:45;;;;;;;24.90;11.43;;;;;;;;;;4915926;29;20063;-82
2024/03/14 05:46:18;;;;;;;21.67;12.07;;;;;;;;;;4939960;28;20039;-82
2024/03/14 05:49:10;;;;;;;23.58;12.70;;;;;;;;;;4927624;28;20089;-81
2024/03/14 05:55:13;;;;;;;23.60;12.88;;;;;;;;;;4816065;29;20045;-80
2024/03/14 06:02:14;;;;;;;19.67;11.10;;;;;;;;;;4762343;30;20044;-82
2024/03/14 06:08:12;;;;;;;20.83;11.68;;;;;;;;;;5046009;23;20102;-81
2024/03/14 06:11:22;;;;;;;19.73;12.27;;;;;;;;;;4978894;28;20104;-82
2024/03/14 06:14:09;;;;;;;20.08;12.02;;;;;;;;;;5026191;28;20088;-81
2024/03/14 06:17:10;;;;;;;20.25;11.32;;;;;;;;;;5029744;28;20026;-82
2024/03/14 06:19:46;;;;;;;19.33;11.52;;;;;;;;;;4973918;28;20069;-81
2024/03/14 06:22:44;;;;;;;20.45;11.25;;;;;;;;;;4930808;28;20059;-83
2024/03/14 06:25:44;;;;;;;21.48;10.88;;;;;;;;;;4945486;28;20034;-83
2024/03/14 06:28:16;;;;;;;18.50;11.32;;;;;;;;;;4916981;29;20044;-82
2024/03/14 06:31:04;;;;;;;;;;;;;;;;;;;;;
2024/03/14 06:37:29;;;;;;;25.30;12.40;;;;;;;;;;5092971;23;20041;-82
2024/03/14 06:39:56;;;;;;;18.88;11.18;;;;;;;;;;4980718;28;20015;-82
2024/03/14 06:43:12;;;;;;;28.30;11.85;;;;;;;;;;4996508;28;20037;-81
2024/03/14 06:46:20;;;;;;;22.75;12.00;;;;;;;;;;4985998;28;20042;-81
2024/03/14 06:49:12;;;;;;;25.08;13.20;;;;;;;;;;5005042;28;20036;-81
2024/03/14 06:51:43;;;;;;;21.20;10.80;;;;;;;;;;4976175;28;20043;-81
2024/03/14 06:54:15;;;;;;;18.02;11.00;;;;;;;;;;4996665;28;20042;-80
2024/03/14 06:57:00;;;;;;;20.67;10.57;;;;;;;;;;5010713;28;20065;-81
2024/03/14 06:59:29;;;;;;;19.58;10.82;;;;;;;;;;4977889;28;20065;-82
2024/03/14 07:02:02;;;;;;;19.65;10.35;;;;;;;;;;4994461;28;20030;-81
2024/03/14 07:04:34;;;;;;;14.40;9.57;;;;;;;;;;4989848;28;20034;-81
2024/03/14 07:07:06;;;;;;;18.88;10.45;;;;;;;;;;4996533;28;20034;-81
2024/03/14 07:09:45;;;;;;;15.73;9.68;;;;;;;;;;5003081;28;20033;-81
2024/03/14 07:12:31;;;;;;;16.02;9.93;;;;;;;;;;5007143;28;20037;-82
2024/03/14 07:15:06;;;;;;;16.25;10.15;;;;;;;;;;4994874;28;20100;-81
2024/03/14 07:17:38;;;;;;;18.58;10.15;;;;;;;;;;5003816;28;20029;-81
2024/03/14 07:20:12;;;;;;;18.08;10.00;;;;;;;;;;4984822;28;20091;-80
2024/03/14 07:22:43;;;;;;;14.63;9.50;;;;;;;;;;4982755;28;20034;-81
2024/03/14 07:25:18;;;;;;;17.55;9.48;;;;;;;;;;4975478;28;20023;-81
2024/03/14 07:27:47;;;;;;;16.92;10.07;;;;;;;;;;4996097;28;20042;-81
2024/03/14 07:30:24;;;;;;;21.85;11.48;;;;;;;;;;5004178;28;20033;-81
2024/03/14 07:33:35;;;;;;;17.27;11.57;;;;;;;;;;4998103;28;20041;-80
2024/03/14 07:36:15;;;;;;;18.55;10.93;;;;;;;;;;4959146;23;20211;-82
2024/03/14 07:38:49;;;;;;;21.73;11.93;;;;;;;;;;4944707;28;20085;-81
2024/03/14 07:41:19;;;;;;;20.00;11.07;;;;;;;;;;4950780;28;20478;-81
2024/03/14 07:43:45;;;;;;;21.42;12.05;;;;;;;;;;4934804;28;20030;-80
2024/03/14 07:46:12;;;;;;;19.55;10.73;;;;;;;;;;4953409;28;20038;-81
2024/03/14 07:48:37;;;;;;;20.15;12.15;;;;;;;;;;4964275;28;20674;-81
2024/03/14 07:51:04;;;;;;;18.35;10.80;;;;;;;;;;4962618;28;20026;-81
2024/03/14 07:53:30;;;;;;;24.48;12.75;;;;;;;;;;4962026;28;20473;-82
2024/03/14 07:55:56;;;;;;;20.02;11.90;;;;;;;;;;4971512;28;20486;-81
2024/03/14 07:58:22;;;;;;;18.33;11.63;;;;;;;;;;4925840;28;20431;-82
2024/03/14 08:00:48;;;;;;;18.30;11.60;;;;;;;;;;4939278;29;20088;-82
2024/03/14 08:03:22;;;;;;;19.25;10.88;;;;;;;;;;4964311;28;20540;-81
2024/03/14 08:05:50;;;;;;;16.95;10.63;;;;;;;;;;4966707;28;20035;-80
2024/03/14 08:08:19;;;;;;;20.23;10.17;;;;;;;;;;4958968;28;20089;-83
2024/03/14 08:10:45;;;;;;;;;;;;;;;;;;4930625;28;20061;-80
2024/03/14 08:13:17;;;;;;;16.70;9.65;;;;;;;;;;4942713;28;20380;-81
2024/03/14 08:15:52;;;;;;;19.73;10.30;;;;;;;;;;4942336;28;20042;-81
2024/03/14 08:18:20;;;;;;;17.27;9.75;;;;;;;;;;4960203;28;20061;-80
2024/03/14 08:20:47;;;;;;;20.48;10.57;;;;;;;;;;4921090;29;20467;-81
2024/03/14 08:23:15;;;;;;;16.20;9.40;;;;;;;;;;4982589;28;20074;-81
2024/03/14 08:25:46;;;;;;;16.88;9.73;;;;;;;;;;4947635;28;20038;-81
2024/03/14 08:28:11;;;;;;;15.55;9.60;;;;;;;;;;4963817;28;20106;-81
2024/03/14 08:30:39;;;;;;;18.23;9.73;;;;;;;;;;4941801;29;20518;-82
2024/03/14 08:33:08;;;;;;;17.40;10.07;;;;;;;;;;4959105;28;20122;-81
2024/03/14 08:35:36;;;;;;;17.88;10.45;;;;;;;;;;4950132;29;20441;-82
2024/03/14 08:38:04;;;;;;;;;;;;;;;;;;4958729;28;20033;-82
2024/03/14 08:40:30;;;;;;;16.13;9.65;;;;;;;;;;4955290;28;19910;-81
2024/03/14 08:42:55;;;;;;;16.80;9.52;;;;;;;;;;4969629;28;20042;-78
2024/03/14 08:45:21;;;;;;;17.45;9.90;;;;;;;;;;4949906;28;20646;-82
2024/03/14 08:47:47;;;;;;;16.02;9.60;;;;;;;;;;4956053;28;20032;-82
2024/03/14 08:50:14;;;;;;;18.15;9.73;;;;;;;;;;4965208;28;20068;-81
2024/03/14 08:52:41;;;;;;;22.08;10.77;;;;;;;;;;4927999;29;20081;-81
2024/03/14 08:55:23;;;;;;;16.25;9.05;;;;;;;;;;4966868;28;20054;-81
2024/03/14 08:57:51;;;;;;;15.23;9.15;;;;;;;;;;4956234;29;20100;-81
2024/03/14 09:00:17;;;;;;;;;;;;;;;;;;4966901;28;20081;-81
2024/03/14 09:02:43;;;;;;;15.95;8.45;;;;;;;;;;4940411;29;20301;-81
2024/03/14 09:05:14;;;;;;;19.52;9.32;;;;;;;;;;4930734;28;20030;-81
2024/03/14 09:07:40;;;;;;;17.23;10.27;;;;;;;;;;4970228;28;20029;-83
2024/03/14 09:10:16;;;;;;;17.02;9.85;;;;;;;;;;4933081;28;20035;-82
2024/03/14 09:12:43;;;;;;;17.20;9.95;;;;;;;;;;4951320;28;20031;-83
2024/03/14 09:15:09;;;;;;;15.18;8.88;;;;;;;;;;4946790;28;20031;-82
2024/03/14 09:17:35;;;;;;;13.02;7.85;;;;;;;;;;4952912;28;20042;-82
2024/03/14 09:20:05;;;;;;;15.00;8.43;;;;;;;;;;4950253;28;20042;-82
2024/03/14 09:22:32;;;;;;;11.93;7.30;;;;;;;;;;4975200;28;20038;-81
2024/03/14 09:24:59;;;;;;;18.13;8.55;;;;;;;;;;4943349;28;20455;-82
2024/03/14 09:27:25;;;;;;;12.65;7.65;;;;;;;;;;4981463;28;20038;-80
2024/03/14 09:29:54;;;;;;;13.80;8.38;;;;;;;;;;4968726;28;20027;-82
2024/03/14 09:32:23;;;;;;;13.45;8.02;;;;;;;;;;4948487;28;20147;-82
2024/03/14 09:34:49;;;;;;;13.35;8.13;;;;;;;;;;4930881;28;20034;-81
2024/03/14 09:37:16;;;;;;;14.40;8.32;;;;;;;;;;4944264;28;20039;-80
2024/03/14 09:39:42;;;;;;;14.75;8.32;;;;;;;;;;4952687;28;20027;-81
2024/03/14 09:42:08;;;;;;;16.25;9.02;;;;;;;;;;4959135;28;20126;-81
2024/03/14 09:44:37;;;;;;;15.25;8.50;;;;;;;;;;4950169;28;20062;-82
2024/03/14 09:47:10;;;;;;;16.67;9.05;;;;;;;;;;4945804;28;20479;-81
2024/03/14 09:49:38;;;;;;;13.10;7.63;;;;;;;;;;4965004;28;20022;-84
2024/03/14 09:52:07;;;;;;;13.60;7.80;;;;;;;;;;4925190;28;20067;-86
2024/03/14 09:54:34;;;;;;;12.70;7.15;;;;;;;;;;4954965;28;20543;-85
2024/03/14 09:57:04;;;;;;;12.70;7.97;;;;;;;;;;4944289;28;20035;-87
2024/03/14 09:59:32;;;;;;;12.50;7.72;;;;;;;;;;4951651;28;20047;-86
2024/03/14 10:02:14;;;;;;;13.45;9.05;;;;;;;;;;4963253;28;20494;-85
2024/03/14 10:04:43;;;;;;;15.93;9.20;;;;;;;;;;4932241;28;20041;-87
2024/03/14 10:07:13;;;;;;;15.20;10.55;;;;;;;;;;4934565;28;20042;-85
2024/03/14 10:09:39;;;;;;;17.23;11.18;;;;;;;;;;4923453;28;20145;-85
2024/03/14 10:12:10;;;;;;;18.08;10.52;;;;;;;;;;4934774;28;20049;-85
2024/03/14 10:14:36;;;;;;;15.05;10.68;;;;;;;;;;4955288;28;20031;-86
2024/03/14 10:17:02;;;;;;;15.90;10.25;;;;;;;;;;4925138;29;20117;-86
2024/03/14 10:19:40;;;;;;;20.33;10.23;;;;;;;;;;4945928;28;20031;-86
2024/03/14 10:22:10;;;;;;;20.63;11.02;;;;;;;;;;4952790;28;20126;-86
2024/03/14 10:24:36;;;;;;;14.52;9.23;;;;;;;;;;4944501;29;20034;-86
2024/03/14 10:27:04;;;;;;;14.73;10.15;;;;;;;;;;4941733;29;20043;-86
2024/03/14 10:29:36;;;;;;;18.25;11.40;;;;;;;;;;4930939;28;20058;-86
2024/03/14 10:32:03;;;;;;;17.70;10.98;;;;;;;;;;4936864;28;20043;-85
2024/03/14 10:34:29;;;;;;;20.50;11.07;;;;;;;;;;4930565;28;20050;-86
2024/03/14 10:37:14;;;;;;;18.40;9.85;;;;;;;;;;5132077;27;20369;-86
2024/03/14 10:39:47;;;;;;;20.55;12.43;;;;;;;;;;5092470;28;20024;-86
2024/03/14 10:42:14;;;;;;;265.95;147.68;;;;;;;;;;5091113;28;20480;-85
2024/03/14 10:44:43;;;;;;;21.85;13.82;;;;;;;;;;5073351;28;20028;-83
2024/03/14 10:47:18;;;;;;;25.50;12.05;;;;;;;;;;5076642;28;20480;-82
2024/03/14 10:49:48;;;;;;;23.25;11.10;;;;;;;;;;5077392;28;20338;-83
2024/03/14 10:52:27;;;;;;;15.15;9.80;;;;;;;;;;5093893;28;20028;-82
2024/03/14 10:54:53;;;;;;;18.10;10.35;;;;;;;;;;5077805;28;20071;-83
2024/03/14 10:57:30;;;;;;;20.35;9.77;;;;;;;;;;5090387;28;20035;-83
2024/03/14 10:59:57;;;;;;;15.43;9.13;;;;;;;;;;5076693;28;20449;-82
2024/03/14 11:02:26;;;;;;;15.02;9.85;;;;;;;;;;5091797;28;20028;-83
2024/03/14 11:04:59;;;;;;;16.90;8.98;;;;;;;;;;5092295;28;20568;-84
2024/03/14 11:07:28;;;;;;;14.23;8.90;;;;;;;;;;5095445;28;20024;-82
2024/03/14 11:09:58;;;;;;;14.70;9.15;;;;;;;;;;5111453;28;20024;-83
2024/03/14 11:12:35;;;;;;;15.30;8.30;;;;;;;;;;5081293;28;20024;-83
2024/03/14 11:15:08;;;;;;;14.65;8.10;;;;;;;;;;5095816;28;20036;-84
2024/03/14 11:17:43;;;;;;;26.13;10.52;;;;;;;;;;5099616;28;20024;-81
2024/03/14 11:20:11;;;;;;;18.38;8.85;;;;;;;;;;5111117;28;20145;-82
2024/03/14 11:22:42;;;;;;;12.88;7.97;;;;;;;;;;5092093;28;20028;-82
2024/03/14 11:25:13;;;;;;;12.20;7.50;;;;;;;;;;5106685;28;20036;-83
2024/03/14 11:27:41;;;;;;;12.35;7.68;;;;;;;;;;5113084;28;20072;-84
2024/03/14 11:30:15;;;;;;;12.00;7.15;;;;;;;;;;5104649;28;20036;-83
2024/03/14 11:32:55;;;;;;;14.15;6.97;;;;;;;;;;5076939;28;20534;-83
2024/03/14 11:35:26;;;;;;;14.13;7.78;;;;;;;;;;5076388;28;20028;-82
2024/03/14 11:37:53;;;;;;;17.60;8.23;;;;;;;;;;5082528;27;20034;-82
2024/03/14 11:40:20;;;;;;;17.23;7.88;;;;;;;;;;5092956;28;20059;-82
2024/03/14 11:42:51;;;;;;;12.52;7.18;;;;;;;;;;5093682;28;20016;-82
2024/03/14 11:45:17;;;;;;;13.27;7.82;;;;;;;;;;5081723;28;20043;-83
2024/03/14 11:47:43;;;;;;;13.25;7.97;;;;;;;;;;5096081;28;20024;-82
2024/03/14 11:50:09;;;;;;;15.88;8.45;;;;;;;;;;5062495;28;20380;-83
2024/03/14 11:52:38;;;;;;;16.63;7.85;;;;;;;;;;5060020;28;20038;-82
2024/03/14 11:55:06;;;;;;;12.45;6.97;;;;;;;;;;5080238;28;20040;-82
2024/03/14 11:57:33;;;;;;;11.47;7.03;;;;;;;;;;5083430;28;20104;-83
2024/03/14 12:00:08;;;;;;;10.90;6.53;;;;;;;;;;5089298;28;20024;-83
2024/03/14 12:02:34;;;;;;;11.18;7.07;;;;;;;;;;5100778;28;20028;-83
2024/03/14 12:05:05;;;;;;;10.95;6.18;;;;;;;;;;5101424;28;20024;-83
2024/03/14 12:07:33;;;;;;;10.65;6.40;;;;;;;;;;5070762;28;20058;-83
2024/03/14 12:09:59;;;;;;;18.17;6.20;;;;;;;;;;5073075;28;20526;-83
2024/03/14 12:12:25;;;;;;;12.02;6.68;;;;;;;;;;5062990;28;20028;-84
2024/03/14 12:14:54;;;;;;;10.50;6.30;;;;;;;;;;5096039;28;20039;-82
2024/03/14 12:17:23;;;;;;;11.93;6.40;;;;;;;;;;5092578;28;20043;-82
2024/03/14 12:19:52;;;;;;;10.30;6.32;;;;;;;;;;5093570;28;20024;-83
2024/03/14 12:22:19;;;;;;;10.00;6.53;;;;;;;;;;5081506;28;20064;-82
2024/03/14 12:24:52;;;;;;;10.00;6.60;;;;;;;;;;5076608;28;20078;-83
2024/03/14 12:27:20;;;;;;;13.23;8.07;;;;;;;;;;5074930;28;20486;-82
2024/03/14 12:29:47;;;;;;;10.43;6.47;;;;;;;;;;5068659;28;20060;-82
2024/03/14 12:32:12;;;;;;;13.85;7.47;;;;;;;;;;5081636;28;20039;-83
2024/03/14 12:34:41;;;;;;;14.80;7.63;;;;;;;;;;5098942;28;20491;-82
2024/03/14 12:37:09;;;;;;;12.73;6.85;;;;;;;;;;5127909;28;20042;-83
2024/03/14 12:39:35;;;;;;;9.53;6.13;;;;;;;;;;5073077;28;20027;-83
2024/03/14 12:42:03;;;;;;;18.50;7.07;;;;;;;;;;5105936;28;20270;-82
2024/03/14 12:44:28;;;;;;;9.50;6.00;;;;;;;;;;5099819;28;20048;-83
2024/03/14 12:46:54;;;;;;;10.15;6.45;;;;;;;;;;5077534;28;20031;-83
2024/03/14 12:49:21;;;;;;;9.10;5.53;;;;;;;;;;5074847;28;20094;-82
2024/03/14 12:51:54;;;;;;;10.43;5.65;;;;;;;;;;5065220;28;20032;-82
2024/03/14 12:54:21;;;;;;;11.55;6.50;;;;;;;;;;5079275;28;20501;-82
2024/03/14 12:56:51;;;;;;;12.65;5.18;;;;;;;;;;5071765;28;20452;-83
2024/03/14 12:59:18;;;;;;;10.48;4.22;;;;;;;;;;5071343;28;20036;-83
2024/03/14 13:01:43;;;;;;;7.97;4.38;;;;;;;;;;5057228;28;20044;-80
2024/03/14 13:04:10;;;;;;;7.25;3.70;;;;;;;;;;5079844;28;20028;-80
2024/03/14 13:06:37;;;;;;;7.55;3.70;;;;;;;;;;5053379;28;20040;-82
2024/03/14 13:09:15;;;;;;;6.90;3.35;;;;;;;;;;5071041;28;20089;-82
2024/03/14 13:11:58;;;;;;;5.97;3.80;;;;;;;;;;5076228;28;20024;-82
2024/03/14 13:14:26;;;;;;;5.30;3.53;;;;;;;;;;5074572;28;20055;-82
2024/03/14 13:17:10;;;;;;;9.70;3.53;;;;;;;;;;5059518;28;20039;-81
2024/03/14 13:19:37;;;;;;;6.25;3.40;;;;;;;;;;5062360;28;20020;-82
2024/03/14 13:22:10;;;;;;;8.10;4.07;;;;;;;;;;5061853;28;20052;-82
2024/03/14 13:24:36;;;;;;;5.60;3.45;;;;;;;;;;5081963;28;20021;-83
2024/03/14 13:27:02;;;;;;;7.20;3.70;;;;;;;;;;5085598;28;20040;-81
2024/03/14 13:29:28;;;;;;;9.88;4.05;;;;;;;;;;5061764;28;20103;-82
2024/03/14 13:31:54;;;;;;;6.82;3.42;;;;;;;;;;5081246;28;20048;-82
2024/03/14 13:37:04;;;;;;;5.68;3.15;;;;;;;;;;5014914;28;20050;-83
2024/03/14 13:39:35;;;;;;;7.38;2.38;;;;;;;;;;4996441;28;20072;-82
2024/03/14 13:42:02;;;;;;;4.72;3.05;;;;;;;;;;4978595;28;20041;-83
2024/03/14 13:44:29;;;;;;;5.00;2.63;;;;;;;;;;4978026;28;20060;-81
2024/03/14 13:46:56;;;;;;;4.20;2.20;;;;;;;;;;4998098;28;20075;-82
2024/03/14 13:49:23;;;;;;;5.18;2.55;;;;;;;;;;4990312;28;20051;-81
2024/03/14 13:51:50;;;;;;;5.68;2.80;;;;;;;;;;4975216;28;20044;-81
2024/03/14 13:54:23;;;;;;;4.32;2.58;;;;;;;;;;4987967;28;20121;-81
2024/03/14 13:56:50;;;;;;;7.80;3.78;;;;;;;;;;5000641;28;20124;-82
2024/03/14 13:59:17;;;;;;;8.13;3.58;;;;;;;;;;5004548;28;20037;-82
2024/03/14 14:01:45;;;;;;;4.13;2.40;;;;;;;;;;4997395;28;20033;-83
2024/03/14 14:04:12;;;;;;;4.00;1.90;;;;;;;;;;4988965;28;20080;-83
2024/03/14 14:06:38;;;;;;;5.25;2.75;;;;;;;;;;4977941;28;20038;-82
2024/03/14 14:09:07;;;;;;;5.57;2.72;;;;;;;;;;4979886;28;20037;-81
2024/03/14 14:11:36;;;;;;;6.43;2.70;;;;;;;;;;4977351;28;20033;-84
2024/03/14 14:14:02;;;;;;;7.53;2.90;;;;;;;;;;4988303;28;20037;-83
2024/03/14 14:16:28;;;;;;;5.57;3.08;;;;;;;;;;5007937;28;20064;-83
2024/03/14 14:18:54;;;;;;;4.78;2.70;;;;;;;;;;5012875;28;20033;-83
2024/03/14 14:21:20;;;;;;;6.03;2.80;;;;;;;;;;5009667;28;20034;-83
2024/03/14 14:23:47;;;;;;;6.50;3.78;;;;;;;;;;4983771;28;20033;-84
2024/03/14 14:26:13;;;;;;;5.18;3.15;;;;;;;;;;4996616;28;20045;-83
2024/03/14 14:28:43;;;;;;;8.98;3.90;;;;;;;;;;4975235;28;20029;-81
2024/03/14 14:31:13;;;;;;;5.70;2.75;;;;;;;;;;5028358;28;20037;-83
2024/03/14 14:33:40;;;;;;;4.60;2.58;;;;;;;;;;4978806;28;20038;-83
2024/03/14 14:36:06;;;;;;;6.60;3.15;;;;;;;;;;5012638;28;20015;-83
2024/03/14 14:38:31;;;;;;;5.40;2.80;;;;;;;;;;4967170;28;20041;-83
2024/03/14 14:40:57;;;;;;;4.68;2.47;;;;;;;;;;4994397;28;20484;-82
2024/03/14 14:43:23;;;;;;;6.35;2.60;;;;;;;;;;4989902;28;20037;-82
2024/03/14 14:45:48;;;;;;;5.78;3.10;;;;;;;;;;4971675;28;20038;-83
2024/03/14 14:48:15;;;;;;;6.32;2.95;;;;;;;;;;4970679;28;20064;-83
2024/03/14 14:50:41;;;;;;;5.97;3.00;;;;;;;;;;4972150;28;20037;-83
2024/03/14 14:53:08;;;;;;;8.27;3.50;;;;;;;;;;4972750;28;20031;-81
2024/03/14 14:55:40;;;;;;;7.45;3.90;;;;;;;;;;4976004;28;20041;-83
2024/03/14 14:58:12;;;;;;;7.03;3.53;;;;;;;;;;4972597;28;20030;-83
2024/03/14 15:00:41;;;;;;;6.85;3.08;;;;;;;;;;4984124;28;20050;-83
2024/03/14 15:03:07;;;;;;;;;;;;;;;;;;4972881;28;20448;-83
2024/03/14 15:05:33;;;;;;;5.90;3.38;;;;;;;;;;4994170;28;19917;-82
2024/03/14 15:08:00;;;;;;;5.07;3.10;;;;;;;;;;4991314;28;20030;-82
2024/03/14 15:10:26;;;;;;;7.93;3.65;;;;;;;;;;4987474;28;20065;-83
2024/03/14 15:12:51;;;;;;;6.75;3.58;;;;;;;;;;4978973;28;20026;-82